createdAt,value
2019-06-26T00:02:09.032Z,19.60
2019-06-26T00:04:40.241Z,19.60
2019-06-26T00:07:11.282Z,19.60
2019-06-26T00:09:43.240Z,19.60
2019-06-26T00:12:14.597Z,19.60
2019-06-26T00:14:45.681Z,19.60
2019-06-26T00:17:16.662Z,19.60
2019-06-26T00:19:47.792Z,19.60
2019-06-26T00:22:18.752Z,19.60
2019-06-26T00:24:49.811Z,19.60
2019-06-26T00:27:20.851Z,19.60
2019-06-26T00:29:51.919Z,19.60
2019-06-26T00:32:23.112Z,19.60
2019-06-26T00:34:54.068Z,19.60
2019-06-26T00:37:25.004Z,19.50
2019-06-26T00:39:56.079Z,19.50
2019-06-26T00:42:27.128Z,19.50
2019-06-26T00:44:58.060Z,19.50
2019-06-26T00:47:29.134Z,19.40
2019-06-26T00:50:00.072Z,19.40
2019-06-26T00:52:30.967Z,19.50
2019-06-26T00:55:03.012Z,19.50
2019-06-26T00:57:35.221Z,19.50
2019-06-26T01:00:09.585Z,19.40
2019-06-26T01:02:41.720Z,19.40
2019-06-26T01:05:13.776Z,19.40
2019-06-26T01:07:44.936Z,19.30
2019-06-26T01:10:16.517Z,19.30
2019-06-26T01:12:47.502Z,19.20
2019-06-26T01:15:19.130Z,19.20
2019-06-26T01:17:50.208Z,19.20
2019-06-26T01:20:21.265Z,19.10
2019-06-26T01:22:52.236Z,19.00
2019-06-26T01:25:23.393Z,19.00
2019-06-26T01:27:54.360Z,19.00
2019-06-26T01:30:26.645Z,19.00
2019-06-26T01:32:57.729Z,19.00
2019-06-26T01:35:28.641Z,19.00
2019-06-26T01:37:59.568Z,19.00
2019-06-26T01:40:30.563Z,19.10
2019-06-26T01:43:01.548Z,19.10
2019-06-26T01:45:32.634Z,19.00
2019-06-26T01:48:03.638Z,19.00
2019-06-26T01:50:34.688Z,19.10
2019-06-26T01:53:05.946Z,19.10
2019-06-26T01:55:36.988Z,19.10
2019-06-26T01:58:08.212Z,19.10
2019-06-26T02:00:39.278Z,19.10
2019-06-26T02:03:10.302Z,19.10
2019-06-26T02:05:41.268Z,19.00
2019-06-26T02:08:12.193Z,19.10
2019-06-26T02:10:43.064Z,19.00
2019-06-26T02:13:13.950Z,19.10
2019-06-26T02:15:44.976Z,19.10
2019-06-26T02:18:33.564Z,19.10
2019-06-26T02:21:04.725Z,19.00
2019-06-26T02:23:35.738Z,19.00
2019-06-26T02:26:06.954Z,19.00
2019-06-26T02:28:37.827Z,19.00
2019-06-26T02:31:08.857Z,19.00
2019-06-26T02:33:39.808Z,19.10
2019-06-26T02:36:10.885Z,19.10
2019-06-26T02:38:41.893Z,19.10
2019-06-26T02:41:12.961Z,19.10
2019-06-26T02:43:45.113Z,19.20
2019-06-26T02:46:16.077Z,19.30
2019-06-26T02:48:47.103Z,19.30
2019-06-26T02:51:18.191Z,19.30
2019-06-26T02:53:49.066Z,19.30
2019-06-26T02:56:20.955Z,19.40
2019-06-26T02:58:52.097Z,19.50
2019-06-26T03:01:23.142Z,19.60
2019-06-26T03:03:54.265Z,19.60
2019-06-26T03:06:25.262Z,19.90
2019-06-26T03:08:56.254Z,19.90
2019-06-26T03:11:27.211Z,19.80
2019-06-26T03:13:58.260Z,19.80
2019-06-26T03:16:29.183Z,19.70
2019-06-26T03:19:00.164Z,19.60
2019-06-26T03:21:31.309Z,19.60
2019-06-26T03:24:02.301Z,19.60
2019-06-26T03:26:33.359Z,19.50
2019-06-26T03:29:04.512Z,19.50
2019-06-26T03:31:35.653Z,19.30
2019-06-26T03:34:06.570Z,19.30
2019-06-26T03:36:37.552Z,19.30
2019-06-26T03:39:09.085Z,19.30
2019-06-26T03:41:40.030Z,19.30
2019-06-26T03:44:10.953Z,19.30
2019-06-26T03:46:42.004Z,19.40
2019-06-26T03:49:13.034Z,19.40
2019-06-26T03:51:44.208Z,19.30
2019-06-26T03:54:15.168Z,19.30
2019-06-26T03:56:47.920Z,19.20
2019-06-26T03:59:18.874Z,19.20
2019-06-26T04:01:50.029Z,19.20
2019-06-26T04:04:21.153Z,19.30
2019-06-26T04:06:52.115Z,19.40
2019-06-26T04:09:23.031Z,19.50
2019-06-26T04:11:54.188Z,19.50
2019-06-26T04:14:25.199Z,19.60
2019-06-26T04:16:56.203Z,19.60
2019-06-26T04:19:27.100Z,19.80
2019-06-26T04:21:58.153Z,20.00
2019-06-26T04:24:29.172Z,20.10
2019-06-26T04:27:00.146Z,20.30
2019-06-26T04:29:31.248Z,20.80
2019-06-26T04:32:02.401Z,21.10
2019-06-26T04:34:33.339Z,21.10
2019-06-26T04:37:04.476Z,21.30
2019-06-26T04:39:35.524Z,21.60
2019-06-26T04:42:06.614Z,21.60
2019-06-26T04:44:38.539Z,21.80
2019-06-26T04:47:09.496Z,21.80
2019-06-26T04:49:40.526Z,21.70
2019-06-26T04:52:11.577Z,21.70
2019-06-26T04:54:42.597Z,21.60
2019-06-26T04:57:13.660Z,21.50
2019-06-26T04:59:45.793Z,21.60
2019-06-26T05:02:16.788Z,21.80
2019-06-26T05:04:47.905Z,22.10
2019-06-26T05:07:18.869Z,22.30
2019-06-26T05:09:49.781Z,22.30
2019-06-26T05:12:20.840Z,22.80
2019-06-26T05:14:51.861Z,23.10
2019-06-26T05:17:22.937Z,23.20
2019-06-26T05:19:53.960Z,23.10
2019-06-26T05:22:25.133Z,22.80
2019-06-26T05:24:56.246Z,22.60
2019-06-26T05:27:27.352Z,22.70
2019-06-26T05:29:58.251Z,23.50
2019-06-26T05:32:29.400Z,24.30
2019-06-26T05:35:03.210Z,24.50
2019-06-26T05:37:34.252Z,24.30
2019-06-26T05:40:06.220Z,24.00
2019-06-26T05:42:38.288Z,23.70
2019-06-26T05:45:10.025Z,23.40
2019-06-26T05:47:40.904Z,23.40
2019-06-26T05:50:13.475Z,23.20
2019-06-26T05:52:44.176Z,23.30
2019-06-26T05:55:15.541Z,23.20
2019-06-26T05:57:48.490Z,23.40
2019-06-26T06:00:19.667Z,23.80
2019-06-26T06:02:53.740Z,24.00
2019-06-26T06:05:23.472Z,24.40
2019-06-26T06:07:54.441Z,24.60
2019-06-26T06:10:25.590Z,24.50
2019-06-26T06:12:56.228Z,24.00
2019-06-26T06:15:26.800Z,23.50
2019-06-26T06:17:57.904Z,23.30
2019-06-26T06:20:35.945Z,23.40
2019-06-26T06:23:07.498Z,23.50
2019-06-26T06:25:38.357Z,23.50
2019-06-26T06:28:09.317Z,23.80
2019-06-26T06:30:40.266Z,24.80
2019-06-26T06:33:11.225Z,25.70
2019-06-26T06:35:42.142Z,26.60
2019-06-26T06:38:13.180Z,27.20
2019-06-26T06:40:44.150Z,27.80
2019-06-26T06:43:15.315Z,28.60
2019-06-26T06:45:46.778Z,28.90
2019-06-26T06:48:17.348Z,29.40
2019-06-26T06:50:47.896Z,29.30
2019-06-26T06:53:18.415Z,29.70
2019-06-26T06:55:49.008Z,29.90
2019-06-26T06:58:19.900Z,29.80
2019-06-26T07:00:50.808Z,29.90
2019-06-26T07:03:21.692Z,29.30
2019-06-26T07:05:52.610Z,29.70
2019-06-26T07:08:26.958Z,29.50
2019-06-26T07:10:57.636Z,29.30
2019-06-26T07:13:28.277Z,29.30
2019-06-26T07:15:59.149Z,29.30
2019-06-26T07:18:30.194Z,29.30
2019-06-26T07:21:01.833Z,29.40
2019-06-26T07:23:32.388Z,29.20
2019-06-26T07:26:02.907Z,29.00
2019-06-26T07:28:33.540Z,29.30
2019-06-26T07:31:04.164Z,29.90
2019-06-26T07:33:34.820Z,30.50
2019-06-26T07:36:05.385Z,30.70
2019-06-26T07:38:35.983Z,31.10
2019-06-26T07:41:06.708Z,31.10
2019-06-26T07:43:37.203Z,30.70
2019-06-26T07:46:07.809Z,31.10
2019-06-26T07:48:39.055Z,31.10
2019-06-26T07:51:09.728Z,30.60
2019-06-26T07:53:40.319Z,30.90
2019-06-26T07:56:10.904Z,31.30
2019-06-26T07:58:41.997Z,31.30
2019-06-26T08:01:12.964Z,31.70
2019-06-26T08:03:43.610Z,31.60
2019-06-26T08:06:14.871Z,31.60
2019-06-26T08:08:45.952Z,31.80
2019-06-26T08:11:16.533Z,31.40
2019-06-26T08:13:47.095Z,31.30
2019-06-26T08:16:17.664Z,31.50
2019-06-26T08:18:48.335Z,31.10
2019-06-26T08:21:19.072Z,31.20
2019-06-26T08:23:49.688Z,31.40
2019-06-26T08:26:20.226Z,31.00
2019-06-26T08:28:51.103Z,31.30
2019-06-26T08:31:21.641Z,31.40
2019-06-26T08:33:52.373Z,31.40
2019-06-26T08:36:22.944Z,31.80
2019-06-26T08:38:53.461Z,31.80
2019-06-26T08:41:24.034Z,32.00
2019-06-26T08:43:54.856Z,31.50
2019-06-26T08:46:25.503Z,31.40
2019-06-26T08:48:56.675Z,31.40
2019-06-26T08:51:27.245Z,32.20
2019-06-26T08:53:57.920Z,32.30
2019-06-26T08:56:28.582Z,32.50
2019-06-26T08:58:59.516Z,32.30
2019-06-26T09:01:30.027Z,32.20
2019-06-26T09:04:00.676Z,32.10
2019-06-26T09:06:31.280Z,31.30
2019-06-26T09:09:03.176Z,31.10
2019-06-26T09:11:35.398Z,31.00
2019-06-26T09:14:05.997Z,31.60
2019-06-26T09:16:36.723Z,31.70
2019-06-26T09:19:07.747Z,31.40
2019-06-26T09:21:38.607Z,30.60
2019-06-26T09:24:10.535Z,30.30
2019-06-26T09:26:41.182Z,30.10
2019-06-26T09:29:11.789Z,30.30
2019-06-26T09:31:42.423Z,30.50
2019-06-26T09:34:12.944Z,30.20
2019-06-26T09:36:43.555Z,29.90
2019-06-26T09:39:14.138Z,29.30
2019-06-26T09:41:45.135Z,29.40
2019-06-26T09:44:16.008Z,29.70
2019-06-26T09:46:46.682Z,30.20
2019-06-26T09:49:17.660Z,29.80
2019-06-26T09:51:48.555Z,29.40
2019-06-26T09:54:19.095Z,29.50
2019-06-26T09:56:49.689Z,30.40
2019-06-26T09:59:20.224Z,30.60
2019-06-26T10:01:50.904Z,30.80
2019-06-26T10:04:22.009Z,30.60
2019-06-26T10:06:52.622Z,30.30
2019-06-26T10:09:23.388Z,30.30
2019-06-26T10:11:54.053Z,30.10
2019-06-26T10:14:24.589Z,30.00
2019-06-26T10:16:55.240Z,29.80
2019-06-26T10:19:25.855Z,29.90
2019-06-26T10:21:56.540Z,30.10
2019-06-26T10:24:27.584Z,30.30
2019-06-26T10:26:58.332Z,30.00
2019-06-26T10:29:28.850Z,30.00
2019-06-26T10:31:59.580Z,29.50
2019-06-26T10:34:30.179Z,29.00
2019-06-26T10:37:01.880Z,28.90
2019-06-26T10:39:33.409Z,28.90
2019-06-26T10:42:04.472Z,28.80
2019-06-26T10:44:35.396Z,29.20
2019-06-26T10:47:05.953Z,29.80
2019-06-26T10:49:36.790Z,29.70
2019-06-26T10:52:07.401Z,29.10
2019-06-26T10:54:38.036Z,29.00
2019-06-26T10:57:09.098Z,28.90
2019-06-26T10:59:39.641Z,28.60
2019-06-26T11:02:11.314Z,28.40
2019-06-26T11:04:42.417Z,28.40
2019-06-26T11:07:13.380Z,28.40
2019-06-26T11:09:44.430Z,28.50
2019-06-26T11:12:15.969Z,28.40
2019-06-26T11:14:47.001Z,28.40
2019-06-26T11:17:19.013Z,28.20
2019-06-26T11:19:49.493Z,28.40
2019-06-26T11:22:20.399Z,28.60
2019-06-26T11:24:52.625Z,28.70
2019-06-26T11:27:23.172Z,28.50
2019-06-26T11:29:53.680Z,28.40
2019-06-26T11:32:24.443Z,28.70
2019-06-26T11:34:55.325Z,28.40
2019-06-26T11:37:26.308Z,28.50
2019-06-26T11:39:56.812Z,28.70
2019-06-26T11:42:27.473Z,28.40
2019-06-26T11:44:58.123Z,28.30
2019-06-26T11:47:28.628Z,28.30
2019-06-26T11:50:00.425Z,28.50
2019-06-26T11:52:31.309Z,28.60
2019-06-26T11:55:03.808Z,28.50
2019-06-26T11:57:34.708Z,28.70
2019-06-26T12:00:07.341Z,28.60
2019-06-26T12:02:39.778Z,28.50
2019-06-26T12:05:10.758Z,28.30
2019-06-26T12:07:41.533Z,28.40
2019-06-26T12:10:13.107Z,28.20
2019-06-26T12:12:43.828Z,28.00
2019-06-26T12:15:16.133Z,28.30
2019-06-26T12:17:46.836Z,28.40
2019-06-26T12:20:19.752Z,28.50
2019-06-26T12:22:50.322Z,28.30
2019-06-26T12:25:22.164Z,28.30
2019-06-26T12:27:52.828Z,28.30
2019-06-26T12:30:23.909Z,28.10
2019-06-26T12:33:02.744Z,27.90
2019-06-26T12:35:27.126Z,28.20
2019-06-26T12:37:57.800Z,28.30
2019-06-26T12:40:31.114Z,28.40
2019-06-26T12:43:01.200Z,28.40
2019-06-26T12:45:32.234Z,28.40
2019-06-26T12:48:03.307Z,28.60
2019-06-26T12:50:35.938Z,28.60
2019-06-26T12:53:07.699Z,28.60
2019-06-26T12:55:38.198Z,28.50
2019-06-26T12:58:14.086Z,28.50
2019-06-26T13:00:41.194Z,28.50
2019-06-26T13:03:12.321Z,28.50
2019-06-26T13:05:42.957Z,28.50
2019-06-26T13:08:14.750Z,28.50
2019-06-26T13:10:50.165Z,28.60
2019-06-26T13:13:17.764Z,28.40
2019-06-26T13:15:50.941Z,28.30
2019-06-26T13:18:20.793Z,28.40
2019-06-26T13:20:53.743Z,28.40
2019-06-26T13:23:23.526Z,28.40
2019-06-26T13:25:54.132Z,28.20
2019-06-26T13:28:24.722Z,28.30
2019-06-26T13:30:55.426Z,28.20
2019-06-26T13:33:26.146Z,28.20
2019-06-26T13:35:56.659Z,28.30
2019-06-26T13:38:27.411Z,28.10
2019-06-26T13:40:57.976Z,28.00
2019-06-26T13:43:28.510Z,28.00
2019-06-26T13:45:59.136Z,27.90
2019-06-26T13:48:29.650Z,27.90
2019-06-26T13:51:09.516Z,28.00
2019-06-26T13:53:32.417Z,28.00
2019-06-26T13:56:02.977Z,28.00
2019-06-26T13:58:33.924Z,28.00
2019-06-26T14:01:04.492Z,27.90
2019-06-26T14:03:35.019Z,27.80
2019-06-26T14:06:05.558Z,27.80
2019-06-26T14:08:36.072Z,27.80
2019-06-26T14:11:08.879Z,27.80
2019-06-26T14:13:41.816Z,27.80
2019-06-26T14:16:11.787Z,27.70
2019-06-26T14:18:42.448Z,27.90
2019-06-26T14:21:24.912Z,28.10
2019-06-26T14:23:45.144Z,28.20
2019-06-26T14:26:15.657Z,28.00
2019-06-26T14:28:46.280Z,27.90
2019-06-26T14:31:17.122Z,27.90
2019-06-26T14:33:48.416Z,28.00
2019-06-26T14:36:23.012Z,28.00
2019-06-26T14:38:51.658Z,28.00
2019-06-26T14:41:22.353Z,27.80
2019-06-26T14:43:53.094Z,27.70
2019-06-26T14:46:23.670Z,27.50
2019-06-26T14:48:54.260Z,27.40
2019-06-26T14:51:37.779Z,27.30
2019-06-26T14:53:57.740Z,27.30
2019-06-26T14:56:28.342Z,27.20
2019-06-26T14:58:59.363Z,27.30
2019-06-26T15:01:29.966Z,27.20
2019-06-26T15:04:00.600Z,27.00
2019-06-26T15:06:31.539Z,27.00
2019-06-26T15:09:02.186Z,27.10
2019-06-26T15:11:33.576Z,27.00
2019-06-26T15:14:04.226Z,27.00
2019-06-26T15:16:35.315Z,26.90
2019-06-26T15:19:06.160Z,26.90
2019-06-26T15:21:37.441Z,26.90
2019-06-26T15:24:08.054Z,26.80
2019-06-26T15:26:38.648Z,26.80
2019-06-26T15:29:09.282Z,26.70
2019-06-26T15:31:39.950Z,26.60
2019-06-26T15:34:10.534Z,26.60
2019-06-26T15:36:41.088Z,26.50
2019-06-26T15:39:11.808Z,26.50
2019-06-26T15:41:42.353Z,26.40
2019-06-26T15:44:13.416Z,26.30
2019-06-26T15:46:44.988Z,26.30
2019-06-26T15:49:15.585Z,26.30
2019-06-26T15:51:46.220Z,26.40
2019-06-26T15:54:16.836Z,26.40
2019-06-26T15:56:47.387Z,26.20
2019-06-26T15:59:18.040Z,26.20
2019-06-26T16:01:48.753Z,26.20
2019-06-26T16:04:19.497Z,26.10
2019-06-26T16:06:50.030Z,26.10
2019-06-26T16:09:20.554Z,26.10
2019-06-26T16:11:51.185Z,26.00
2019-06-26T16:14:21.735Z,26.10
2019-06-26T16:16:53.936Z,26.20
2019-06-26T16:19:25.415Z,26.10
2019-06-26T16:21:56.675Z,26.10
2019-06-26T16:24:30.154Z,26.00
2019-06-26T16:26:59.605Z,26.00
2019-06-26T16:29:30.209Z,26.10
2019-06-26T16:32:00.737Z,26.30
2019-06-26T16:34:31.405Z,26.30
2019-06-26T16:37:02.003Z,26.30
2019-06-26T16:39:33.033Z,26.20
2019-06-26T16:42:04.119Z,26.10
2019-06-26T16:44:34.773Z,26.20
2019-06-26T16:47:05.419Z,26.10
2019-06-26T16:49:36.070Z,26.00
2019-06-26T16:52:06.575Z,25.90
2019-06-26T16:54:37.180Z,25.80
2019-06-26T16:57:07.853Z,25.70
2019-06-26T16:59:38.491Z,25.70
2019-06-26T17:02:09.409Z,25.70
2019-06-26T17:04:40.163Z,25.80
2019-06-26T17:07:11.159Z,25.70
2019-06-26T17:09:44.300Z,25.60
2019-06-26T17:12:13.864Z,25.70
2019-06-26T17:14:44.434Z,25.60
2019-06-26T17:17:15.233Z,25.60
2019-06-26T17:19:45.812Z,25.50
2019-06-26T17:22:16.388Z,25.40
2019-06-26T17:24:47.644Z,25.40
2019-06-26T17:27:18.208Z,25.40
2019-06-26T17:29:48.787Z,25.40
2019-06-26T17:32:19.402Z,25.40
2019-06-26T17:34:50.444Z,25.40
2019-06-26T17:37:21.101Z,25.30
2019-06-26T17:39:51.864Z,25.20
2019-06-26T17:42:22.474Z,25.20
2019-06-26T17:44:53.219Z,25.20
2019-06-26T17:47:23.804Z,25.10
2019-06-26T17:49:54.409Z,25.00
2019-06-26T17:52:25.072Z,25.00
2019-06-26T17:54:55.668Z,24.90
2019-06-26T17:57:26.376Z,24.90
2019-06-26T17:59:56.933Z,24.80
2019-06-26T18:02:27.986Z,24.80
2019-06-26T18:04:58.609Z,24.80
2019-06-26T18:07:29.241Z,24.70
2019-06-26T18:09:59.838Z,24.80
2019-06-26T18:12:30.388Z,24.80
2019-06-26T18:15:01.076Z,24.70
2019-06-26T18:17:32.212Z,24.70
2019-06-26T18:20:03.060Z,24.80
2019-06-26T18:22:33.664Z,24.80
2019-06-26T18:25:04.703Z,24.70
2019-06-26T18:27:35.394Z,24.60
2019-06-26T18:30:06.724Z,24.50
2019-06-26T18:32:37.626Z,24.50
2019-06-26T18:35:12.438Z,24.40
2019-06-26T18:37:43.160Z,24.30
2019-06-26T18:40:14.478Z,24.30
2019-06-26T18:42:46.350Z,24.20
2019-06-26T18:45:17.193Z,24.10
2019-06-26T18:47:47.765Z,24.00
2019-06-26T18:50:18.499Z,23.80
2019-06-26T18:52:49.018Z,23.70
2019-06-26T18:55:22.206Z,23.60
2019-06-26T18:57:53.483Z,23.50
2019-06-26T19:00:32.108Z,23.50
2019-06-26T19:03:02.715Z,23.40
2019-06-26T19:05:37.220Z,23.20
2019-06-26T19:08:13.387Z,23.10
2019-06-26T19:10:44.476Z,23.10
2019-06-26T19:13:20.230Z,23.00
2019-06-26T19:15:51.654Z,23.00
2019-06-26T19:18:22.340Z,23.00
2019-06-26T19:20:53.025Z,22.90
2019-06-26T19:23:23.744Z,22.80
2019-06-26T19:25:56.296Z,22.80
2019-06-26T19:28:26.856Z,22.80
2019-06-26T19:31:00.089Z,22.70
2019-06-26T19:33:30.969Z,22.70
2019-06-26T19:36:02.300Z,22.60
2019-06-26T19:38:32.989Z,22.50
2019-06-26T19:41:14.156Z,22.40
2019-06-26T19:43:47.166Z,22.40
2019-06-26T19:46:19.300Z,22.40
2019-06-26T19:48:52.420Z,22.40
2019-06-26T19:51:23.253Z,22.30
2019-06-26T19:53:53.871Z,22.40
2019-06-26T19:56:24.946Z,22.40
2019-06-26T19:59:04.028Z,22.50
2019-06-26T20:01:35.139Z,22.40
2019-06-26T20:04:08.425Z,22.30
2019-06-26T20:06:39.105Z,22.30
2019-06-26T20:09:10.155Z,22.20
2019-06-26T20:11:41.324Z,22.20
2019-06-26T20:14:12.686Z,22.20
2019-06-26T20:16:43.828Z,22.00
2019-06-26T20:19:14.356Z,21.90
2019-06-26T20:21:44.993Z,21.70
2019-06-26T20:24:16.432Z,21.60
2019-06-26T20:26:47.411Z,21.40
2019-06-26T20:29:18.320Z,21.20
2019-06-26T20:31:51.270Z,21.00
2019-06-26T20:34:22.362Z,20.90
2019-06-26T20:36:53.286Z,20.70
2019-06-26T20:39:24.313Z,20.60
2019-06-26T20:41:59.492Z,20.60
2019-06-26T20:44:31.170Z,20.50
2019-06-26T20:47:02.298Z,20.60
2019-06-26T20:50:24.738Z,20.50
2019-06-26T20:53:01.309Z,20.40
2019-06-26T20:55:32.701Z,20.60
2019-06-26T20:58:03.691Z,20.50
2019-06-26T21:00:35.451Z,20.40
2019-06-26T21:03:31.276Z,20.30
2019-06-26T21:06:05.713Z,20.30
2019-06-26T21:08:36.414Z,20.30
2019-06-26T21:11:07.109Z,20.30
2019-06-26T21:13:37.957Z,20.20
2019-06-26T21:16:09.989Z,20.10
2019-06-26T21:18:41.299Z,19.90
2019-06-26T21:21:15.888Z,19.80
2019-06-26T21:23:47.468Z,19.70
2019-06-26T21:26:18.540Z,19.70
2019-06-26T21:28:49.856Z,19.70
2019-06-26T21:31:21.050Z,19.70
2019-06-26T21:33:52.266Z,19.60
2019-06-26T21:36:23.447Z,19.50
2019-06-26T21:38:55.895Z,19.50
2019-06-26T21:41:26.864Z,19.40
2019-06-26T21:43:57.899Z,19.50
2019-06-26T21:46:29.221Z,19.50
2019-06-26T21:49:01.416Z,19.60
2019-06-26T21:51:32.796Z,19.70
2019-06-26T21:54:04.931Z,19.60
2019-06-26T21:56:54.692Z,19.60
2019-06-26T21:59:44.060Z,19.40
2019-06-26T22:02:33.288Z,19.30
2019-06-26T22:05:08.372Z,19.20
2019-06-26T22:07:46.700Z,19.20
2019-06-26T22:10:28.384Z,19.20
2019-06-26T22:13:04.187Z,19.00
2019-06-26T22:15:36.948Z,18.90
2019-06-26T22:18:10.166Z,18.70
2019-06-26T22:20:41.310Z,18.60
2019-06-26T22:23:12.208Z,18.50
2019-06-26T22:25:50.833Z,18.60
2019-06-26T22:28:15.836Z,18.50
2019-06-26T22:30:47.036Z,18.50
2019-06-26T22:33:18.196Z,18.60
2019-06-26T22:35:49.334Z,18.60
2019-06-26T22:38:20.294Z,18.60
2019-06-26T22:40:53.116Z,18.50
2019-06-26T22:43:24.033Z,18.60
2019-06-26T22:45:54.984Z,18.60
2019-06-26T22:48:26.031Z,18.60
2019-06-26T22:50:57.078Z,18.60
2019-06-26T22:53:28.095Z,18.60
2019-06-26T22:56:07.795Z,18.50
2019-06-26T22:58:32.694Z,18.40
2019-06-26T23:01:03.799Z,18.40
2019-06-26T23:03:34.728Z,18.40
2019-06-26T23:06:05.702Z,18.40
2019-06-26T23:08:36.809Z,18.40
2019-06-26T23:11:07.873Z,18.40
2019-06-26T23:13:39.000Z,18.40
2019-06-26T23:16:10.075Z,18.40
2019-06-26T23:18:40.880Z,18.30
2019-06-26T23:21:11.967Z,18.50
2019-06-26T23:23:42.973Z,18.60
2019-06-26T23:26:23.396Z,18.60
2019-06-26T23:28:46.560Z,18.60
2019-06-26T23:31:17.658Z,18.50
2019-06-26T23:33:48.568Z,18.50
2019-06-26T23:36:19.664Z,18.50
2019-06-26T23:38:50.640Z,18.50
2019-06-26T23:41:21.693Z,18.50
2019-06-26T23:43:52.728Z,18.70
2019-06-26T23:46:23.897Z,18.60
2019-06-26T23:48:54.814Z,18.60
2019-06-26T23:51:25.768Z,18.60
2019-06-26T23:53:56.718Z,18.60
2019-06-26T23:56:40.047Z,18.70
2019-06-26T23:59:00.436Z,18.70
